Time;durP1;ratioP1;P1;durP2;ratioP2;P2;SDS_P1;SDS_P2;PMS_P1;PMS_P2;Temp;Humidity;BMP_temperature;BMP_pressure;BME280_temperature;BME280_humidity;BME280_pressure;Samples;Min_cycle;Max_cycle;Signal;HPM_P1;HPM_P2
2023/05/27 05:45:43;;;;;;;;;8.33;6.33;;;;;;;;6320020;22;45696;-74
2023/05/27 05:48:09;;;;;;;;;11.25;5.50;;;;;;;;6371499;22;45257;-74
2023/05/27 05:50:34;;;;;;;;;10.00;8.50;;;;;;;;6371437;22;45170;-74
2023/05/27 05:52:59;;;;;;;;;7.50;7.00;;;;;;;;6371819;22;45197;-74
2023/05/27 05:55:25;;;;;;;;;7.75;7.75;;;;;;;;6371485;22;45144;-75
2023/05/27 05:57:50;;;;;;;;;7.00;6.75;;;;;;;;6372396;22;45092;-75
2023/05/27 06:00:15;;;;;;;;;9.00;7.00;;;;;;;;6370842;22;45380;-74
2023/05/27 06:02:40;;;;;;;;;9.00;9.00;;;;;;;;6371020;22;45156;-74
2023/05/27 06:05:06;;;;;;;;;9.50;9.50;;;;;;;;6371408;22;45326;-74
2023/05/27 06:07:31;;;;;;;;;7.00;5.50;;;;;;;;6372014;22;45416;-74
2023/05/27 06:09:57;;;;;;;;;12.00;6.50;;;;;;;;6371409;22;45420;-75
2023/05/27 06:12:22;;;;;;;;;9.75;7.00;;;;;;;;6371179;22;47703;-74
2023/05/27 06:14:47;;;;;;;;;8.50;8.50;;;;;;;;6371086;22;45159;-75
2023/05/27 06:17:13;;;;;;;;;8.33;5.33;;;;;;;;6373371;22;45165;-75
2023/05/27 06:19:38;;;;;;;;;10.75;7.75;;;;;;;;6372690;22;45388;-74
2023/05/27 06:22:05;;;;;;;;;10.75;8.00;;;;;;;;6372758;22;45310;-75
2023/05/27 06:24:30;;;;;;;;;11.00;8.33;;;;;;;;6372559;22;45445;-75
2023/05/27 06:26:55;;;;;;;;;10.67;7.67;;;;;;;;6372632;22;45457;-75
2023/05/27 06:29:20;;;;;;;;;15.33;8.33;;;;;;;;6372285;22;45353;-75
2023/05/27 06:31:48;;;;;;;;;9.00;8.00;;;;;;;;6373076;22;45167;-75
2023/05/27 06:34:13;;;;;;;;;7.67;7.00;;;;;;;;6372949;22;45261;-72
2023/05/27 06:36:38;;;;;;;;;10.33;8.00;;;;;;;;6344248;22;45255;-72
2023/05/27 06:39:03;;;;;;;;;9.67;8.00;;;;;;;;6371978;22;45254;-75
2023/05/27 06:41:28;;;;;;;;;6.00;6.00;;;;;;;;6344169;22;46913;-75
2023/05/27 06:43:54;;;;;;;;;13.33;8.00;;;;;;;;6343781;22;45246;-75
2023/05/27 06:46:19;;;;;;;;;17.33;15.33;;;;;;;;6371806;22;45222;-74
2023/05/27 06:48:44;;;;;;;;;7.67;5.67;;;;;;;;6372662;22;45093;-75
2023/05/27 06:51:09;;;;;;;;;13.33;10.33;;;;;;;;6372305;22;45324;-74
2023/05/27 06:53:35;;;;;;;;;9.33;7.67;;;;;;;;6372579;22;45257;-75
2023/05/27 06:56:00;;;;;;;;;10.33;8.33;;;;;;;;6372355;22;45221;-75
2023/05/27 06:58:25;;;;;;;;;8.33;6.67;;;;;;;;6343999;22;46970;-75
2023/05/27 07:00:50;;;;;;;;;8.67;7.33;;;;;;;;6372840;22;45213;-76
2023/05/27 07:03:16;;;;;;;;;9.00;8.00;;;;;;;;6373361;22;45201;-75
2023/05/27 07:05:41;;;;;;;;;9.67;8.33;;;;;;;;6373043;22;45463;-75
2023/05/27 07:08:06;;;;;;;;;9.00;5.33;;;;;;;;6372504;22;45474;-75
2023/05/27 07:10:31;;;;;;;;;8.00;7.00;;;;;;;;6370778;22;45237;-75
2023/05/27 07:12:56;;;;;;;;;10.67;7.67;;;;;;;;6372753;22;45384;-75
2023/05/27 07:15:22;;;;;;;;;4.33;3.00;;;;;;;;6372218;22;45141;-75
2023/05/27 07:17:47;;;;;;;;;10.00;8.67;;;;;;;;6372801;22;45212;-75
2023/05/27 07:20:12;;;;;;;;;11.00;9.67;;;;;;;;6372012;22;45425;-75
2023/05/27 07:22:37;;;;;;;;;13.67;10.00;;;;;;;;6372420;22;45233;-74
2023/05/27 07:25:03;;;;;;;;;8.33;6.00;;;;;;;;6372464;22;45380;-76
2023/05/27 07:27:28;;;;;;;;;10.00;6.00;;;;;;;;6372454;22;45283;-75
2023/05/27 07:29:53;;;;;;;;;11.33;7.33;;;;;;;;6371921;22;46225;-75
2023/05/27 07:32:19;;;;;;;;;8.00;7.67;;;;;;;;6372391;22;45330;-75
2023/05/27 07:34:44;;;;;;;;;9.67;6.67;;;;;;;;6372395;22;45457;-75
2023/05/27 07:37:09;;;;;;;;;10.67;7.00;;;;;;;;6372539;22;45227;-75
2023/05/27 07:39:34;;;;;;;;;11.00;6.67;;;;;;;;6372503;22;46584;-75
2023/05/27 07:42:00;;;;;;;;;9.67;6.67;;;;;;;;6372716;22;45168;-75
2023/05/27 07:44:27;;;;;;;;;11.67;7.00;;;;;;;;6372438;22;45612;-75
2023/05/27 07:46:52;;;;;;;;;5.67;5.33;;;;;;;;6372844;22;45166;-76
2023/05/27 07:49:18;;;;;;;;;9.67;8.67;;;;;;;;6372867;22;45426;-75
2023/05/27 07:51:43;;;;;;;;;8.33;6.67;;;;;;;;6371293;22;45248;-75
2023/05/27 07:54:08;;;;;;;;;9.33;6.33;;;;;;;;6372485;22;45175;-75
2023/05/27 07:56:34;;;;;;;;;9.67;7.00;;;;;;;;6372276;22;45179;-75
2023/05/27 07:58:59;;;;;;;;;10.00;6.67;;;;;;;;6372165;22;45250;-75
2023/05/27 08:01:30;;;;;;;;;7.67;5.00;;;;;;;;6372170;22;45242;-75
2023/05/27 08:03:55;;;;;;;;;9.33;7.33;;;;;;;;6372475;22;45250;-75
2023/05/27 08:06:20;;;;;;;;;9.00;7.67;;;;;;;;6370192;22;45546;-77
2023/05/27 08:08:47;;;;;;;;;5.67;2.67;;;;;;;;6372144;22;45920;-74
2023/05/27 08:11:12;;;;;;;;;7.33;7.33;;;;;;;;6370647;22;45588;-73
2023/05/27 08:13:38;;;;;;;;;10.33;8.00;;;;;;;;6372497;22;45223;-73
2023/05/27 08:16:03;;;;;;;;;10.67;8.00;;;;;;;;6371255;22;45376;-72
2023/05/27 08:18:28;;;;;;;;;9.00;8.33;;;;;;;;6371787;22;45241;-73
2023/05/27 08:20:53;;;;;;;;;8.33;7.00;;;;;;;;6371337;22;45246;-72
2023/05/27 08:23:18;;;;;;;;;12.00;7.67;;;;;;;;6372230;22;45395;-73
2023/05/27 08:25:44;;;;;;;;;7.33;6.00;;;;;;;;6372871;22;45164;-72
2023/05/27 08:28:09;;;;;;;;;8.67;8.67;;;;;;;;6372920;22;45280;-73
2023/05/27 08:30:35;;;;;;;;;8.33;6.33;;;;;;;;6364220;22;45214;-72
2023/05/27 08:33:00;;;;;;;;;6.00;6.00;;;;;;;;6369068;22;45379;-72
2023/05/27 08:35:26;;;;;;;;;8.00;4.00;;;;;;;;6371103;22;45397;-72
2023/05/27 08:37:51;;;;;;;;;10.67;9.00;;;;;;;;6371917;22;45195;-73
2023/05/27 08:40:18;;;;;;;;;7.00;6.00;;;;;;;;6371595;22;45224;-72
2023/05/27 08:42:44;;;;;;;;;12.00;9.00;;;;;;;;6369603;22;45254;-72
2023/05/27 08:45:09;;;;;;;;;7.67;7.33;;;;;;;;6370446;22;45238;-71
2023/05/27 08:47:35;;;;;;;;;6.50;6.50;;;;;;;;6371873;22;46530;-70
2023/05/27 08:50:00;;;;;;;;;5.75;5.00;;;;;;;;6369837;22;45293;-70
2023/05/27 08:52:29;;;;;;;;;8.25;7.50;;;;;;;;6372044;22;45566;-70
2023/05/27 08:54:56;;;;;;;;;8.75;6.75;;;;;;;;6370530;22;45399;-71
2023/05/27 08:57:23;;;;;;;;;9.50;7.75;;;;;;;;6370799;22;46037;-71
2023/05/27 08:59:49;;;;;;;;;10.00;10.00;;;;;;;;6342097;22;45291;-72
2023/05/27 09:02:14;;;;;;;;;13.50;11.00;;;;;;;;6370049;22;45380;-73
2023/05/27 09:04:40;;;;;;;;;8.50;6.50;;;;;;;;6367324;22;45282;-72
2023/05/27 09:07:05;;;;;;;;;8.00;6.75;;;;;;;;6342901;22;45921;-73
2023/05/27 09:09:31;;;;;;;;;7.50;7.50;;;;;;;;6371276;22;45336;-70
2023/05/27 09:11:59;;;;;;;;;13.25;10.75;;;;;;;;6370664;22;45415;-73
2023/05/27 09:14:27;;;;;;;;;6.50;6.50;;;;;;;;6370936;22;45168;-74
2023/05/27 09:16:52;;;;;;;;;10.25;9.25;;;;;;;;6372134;22;46028;-74
2023/05/27 09:19:18;;;;;;;;;7.00;7.00;;;;;;;;6371934;22;44597;-74
2023/05/27 09:21:43;;;;;;;;;5.00;5.00;;;;;;;;6371772;22;45603;-73
2023/05/27 09:24:10;;;;;;;;;11.50;9.50;;;;;;;;6371287;22;45245;-73
2023/05/27 09:26:35;;;;;;;;;7.50;6.75;;;;;;;;6371051;22;45476;-74
2023/05/27 09:29:03;;;;;;;;;10.25;8.25;;;;;;;;6371187;22;45342;-74
2023/05/27 09:31:28;;;;;;;;;18.75;10.25;;;;;;;;6370419;22;45317;-73
2023/05/27 09:33:53;;;;;;;;;9.75;8.75;;;;;;;;6371111;22;45333;-72
2023/05/27 09:36:25;;;;;;;;;15.50;10.75;;;;;;;;6342378;22;45215;-73
2023/05/27 09:38:50;;;;;;;;;10.00;8.00;;;;;;;;6371091;22;45298;-74
2023/05/27 09:41:22;;;;;;;;;8.75;8.75;;;;;;;;6371218;22;45321;-74
2023/05/27 09:43:53;;;;;;;;;8.50;8.50;;;;;;;;6371565;22;45180;-74
2023/05/27 09:46:18;;;;;;;;;12.75;7.50;;;;;;;;6370179;22;46158;-73
2023/05/27 09:48:43;;;;;;;;;10.00;8.50;;;;;;;;6371339;22;45273;-72
2023/05/27 09:51:09;;;;;;;;;11.25;7.75;;;;;;;;6371364;22;45369;-72
2023/05/27 09:53:35;;;;;;;;;8.75;7.50;;;;;;;;6373084;22;45159;-73
2023/05/27 09:56:00;;;;;;;;;7.20;6.20;;;;;;;;6372446;22;45193;-75
2023/05/27 09:58:26;;;;;;;;;8.75;6.75;;;;;;;;6373205;22;45178;-74
2023/05/27 10:00:52;;;;;;;;;10.75;7.75;;;;;;;;6372384;22;45176;-74
2023/05/27 10:03:21;;;;;;;;;8.75;8.75;;;;;;;;6372907;22;45180;-74
2023/05/27 10:05:47;;;;;;;;;11.20;7.40;;;;;;;;6371996;22;47228;-74
2023/05/27 10:08:13;;;;;;;;;9.60;8.20;;;;;;;;6373137;22;45268;-74
2023/05/27 10:10:38;;;;;;;;;10.25;8.50;;;;;;;;6373237;22;45641;-74
2023/05/27 10:13:04;;;;;;;;;9.50;8.25;;;;;;;;6371848;22;45329;-74
2023/05/27 10:15:31;;;;;;;;;9.25;7.50;;;;;;;;6372505;22;45750;-74
2023/05/27 10:17:58;;;;;;;;;8.00;6.80;;;;;;;;6372735;22;45150;-74
2023/05/27 10:20:30;;;;;;;;;9.00;7.20;;;;;;;;6372837;22;45284;-74
2023/05/27 10:22:57;;;;;;;;;6.80;6.00;;;;;;;;6372708;22;45404;-74
2023/05/27 10:25:23;;;;;;;;;9.00;7.40;;;;;;;;6372746;22;45996;-73
2023/05/27 10:27:48;;;;;;;;;8.50;6.75;;;;;;;;6373070;22;45163;-74
2023/05/27 10:30:14;;;;;;;;;8.75;8.00;;;;;;;;6372831;22;45133;-74
2023/05/27 10:32:49;;;;;;;;;8.20;7.20;;;;;;;;6373018;22;45553;-75
2023/05/27 10:35:15;;;;;;;;;9.20;9.20;;;;;;;;6371005;22;46073;-75
2023/05/27 10:37:41;;;;;;;;;8.25;8.00;;;;;;;;6373005;22;45276;-75
2023/05/27 10:40:07;;;;;;;;;10.50;8.25;;;;;;;;6372691;22;45285;-75
2023/05/27 10:42:32;;;;;;;;;11.00;11.00;;;;;;;;6372388;22;45455;-74
2023/05/27 10:45:08;;;;;;;;;11.00;9.75;;;;;;;;6371451;22;45329;-75
2023/05/27 10:47:36;;;;;;;;;13.40;13.40;;;;;;;;6370364;22;45251;-74
2023/05/27 10:50:14;;;;;;;;;13.00;9.80;;;;;;;;6372621;22;45180;-75
2023/05/27 10:52:40;;;;;;;;;44.00;36.00;;;;;;;;6372951;22;45172;-73
2023/05/27 10:55:06;;;;;;;;;8.75;5.75;;;;;;;;6375240;22;45334;-72
2023/05/27 10:57:32;;;;;;;;;16.80;6.60;;;;;;;;6373207;22;45451;-75
2023/05/27 11:00:00;;;;;;;;;11.00;10.00;;;;;;;;6374206;22;45261;-74
2023/05/27 11:02:30;;;;;;;;;17.75;17.75;;;;;;;;6374312;22;45509;-74
2023/05/27 11:04:55;;;;;;;;;10.40;8.60;;;;;;;;6374338;22;46122;-75
2023/05/27 11:07:21;;;;;;;;;11.00;9.25;;;;;;;;6374846;22;45310;-74
2023/05/27 11:09:47;;;;;;;;;10.25;8.25;;;;;;;;6374361;22;45229;-74
2023/05/27 11:12:16;;;;;;;;;10.20;6.80;;;;;;;;6374301;22;45440;-73
2023/05/27 11:14:43;;;;;;;;;16.40;12.20;;;;;;;;6371874;22;45236;-72
2023/05/27 11:17:14;;;;;;;;;10.00;10.00;;;;;;;;6374401;22;45178;-73
2023/05/27 11:19:40;;;;;;;;;8.00;7.80;;;;;;;;6374299;22;45240;-73
2023/05/27 11:22:09;;;;;;;;;9.50;7.75;;;;;;;;6374003;22;45488;-74
2023/05/27 11:24:36;;;;;;;;;12.00;10.00;;;;;;;;6374959;22;46283;-75
2023/05/27 11:27:07;;;;;;;;;12.20;8.60;;;;;;;;6375464;22;45230;-75
2023/05/27 11:29:32;;;;;;;;;9.20;9.20;;;;;;;;6374734;22;45237;-74
2023/05/27 11:31:58;;;;;;;;;9.00;8.25;;;;;;;;6375099;22;45149;-74
2023/05/27 11:34:23;;;;;;;;;12.25;8.75;;;;;;;;6374298;22;45202;-73
2023/05/27 11:36:49;;;;;;;;;37.67;33.00;;;;;;;;6374348;22;45266;-74
2023/05/27 11:39:18;;;;;;;;;12.20;10.20;;;;;;;;6374423;22;45424;-77
2023/05/27 11:41:52;;;;;;;;;14.60;12.80;;;;;;;;6373385;22;45388;-73
2023/05/27 11:44:22;;;;;;;;;11.60;10.80;;;;;;;;6373829;22;46697;-74
2023/05/27 11:46:47;;;;;;;;;8.80;8.80;;;;;;;;6339566;22;45245;-75
2023/05/27 11:49:13;;;;;;;;;9.50;9.50;;;;;;;;6342380;22;44604;-74
2023/05/27 11:51:46;;;;;;;;;11.00;9.40;;;;;;;;6342206;22;45228;-74
2023/05/27 11:54:22;;;;;;;;;11.60;8.40;;;;;;;;6337432;22;46190;-74
2023/05/27 11:56:48;;;;;;;;;8.60;7.80;;;;;;;;6342374;22;45257;-73
2023/05/27 11:59:13;;;;;;;;;10.50;9.25;;;;;;;;6340051;22;45579;-73
2023/05/27 12:01:39;;;;;;;;;13.00;10.50;;;;;;;;6342105;22;45119;-75
2023/05/27 12:04:04;;;;;;;;;24.50;18.25;;;;;;;;6343186;22;46030;-78
2023/05/27 12:06:31;;;;;;;;;20.75;18.75;;;;;;;;6342255;22;45188;-78
2023/05/27 12:08:56;;;;;;;;;20.80;20.00;;;;;;;;6345703;22;45333;-76
2023/05/27 12:11:21;;;;;;;;;12.50;11.25;;;;;;;;6345207;22;45438;-78
2023/05/27 12:13:47;;;;;;;;;8.00;8.00;;;;;;;;6345227;22;45271;-76
2023/05/27 12:16:12;;;;;;;;;11.75;8.25;;;;;;;;6344783;22;45275;-82
2023/05/27 12:18:38;;;;;;;;;12.25;8.75;;;;;;;;6344644;22;45249;-77
2023/05/27 12:21:04;;;;;;;;;7.20;6.00;;;;;;;;6342769;22;45356;-76
2023/05/27 12:23:32;;;;;;;;;9.50;7.75;;;;;;;;6341152;22;46930;-77
2023/05/27 12:25:57;;;;;;;;;10.60;7.60;;;;;;;;6341172;22;44613;-78
2023/05/27 12:28:22;;;;;;;;;7.50;5.75;;;;;;;;6344037;22;45223;-78
2023/05/27 12:30:48;;;;;;;;;9.50;8.50;;;;;;;;6342258;22;45578;-81
2023/05/27 12:33:13;;;;;;;;;7.00;6.25;;;;;;;;6343544;22;45119;-81
2023/05/27 12:35:38;;;;;;;;;7.00;7.00;;;;;;;;6342627;22;45239;-79
2023/05/27 12:38:03;;;;;;;;;6.75;6.25;;;;;;;;6343994;22;45348;-79
2023/05/27 12:40:29;;;;;;;;;5.50;4.75;;;;;;;;6342974;22;45421;-79
2023/05/27 12:42:54;;;;;;;;;7.75;6.50;;;;;;;;6342383;22;45995;-79
2023/05/27 12:45:24;;;;;;;;;7.25;6.25;;;;;;;;6340531;22;45457;-79
2023/05/27 12:47:49;;;;;;;;;9.80;6.60;;;;;;;;6343784;22;45182;-75
2023/05/27 12:50:15;;;;;;;;;9.25;8.75;;;;;;;;6342803;22;45256;-74
2023/05/27 12:52:46;;;;;;;;;9.75;9.00;;;;;;;;6343341;22;48111;-76
2023/05/27 12:55:11;;;;;;;;;9.80;7.00;;;;;;;;6344659;22;45277;-76
2023/05/27 12:57:38;;;;;;;;;23.25;22.00;;;;;;;;6344027;22;45620;-76
2023/05/27 13:00:03;;;;;;;;;11.20;9.20;;;;;;;;6341915;22;46864;-76
2023/05/27 13:02:29;;;;;;;;;9.25;9.25;;;;;;;;6342468;22;45996;-73
2023/05/27 13:04:54;;;;;;;;;9.25;7.50;;;;;;;;6342133;22;45333;-74
2023/05/27 13:07:19;;;;;;;;;6.25;6.25;;;;;;;;6342367;22;45211;-75
2023/05/27 13:09:45;;;;;;;;;11.25;8.25;;;;;;;;6342275;22;45268;-73
2023/05/27 13:12:10;;;;;;;;;8.00;8.00;;;;;;;;6342107;22;46496;-75
2023/05/27 13:14:35;;;;;;;;;10.25;10.25;;;;;;;;6339236;22;45179;-75
2023/05/27 13:17:01;;;;;;;;;10.00;8.00;;;;;;;;6342445;22;45266;-75
2023/05/27 13:19:27;;;;;;;;;10.60;9.00;;;;;;;;6341665;22;45146;-75
2023/05/27 13:21:52;;;;;;;;;9.25;6.50;;;;;;;;6342188;22;45140;-76
2023/05/27 13:24:17;;;;;;;;;12.50;9.25;;;;;;;;6341925;22;45214;-75
2023/05/27 13:26:42;;;;;;;;;7.25;7.25;;;;;;;;6341592;22;45314;-74
2023/05/27 13:29:07;;;;;;;;;11.75;9.75;;;;;;;;6341843;22;45454;-75
2023/05/27 13:31:33;;;;;;;;;11.75;9.25;;;;;;;;6341870;22;46147;-74
2023/05/27 13:33:58;;;;;;;;;8.25;8.00;;;;;;;;6341400;22;45175;-74
2023/05/27 13:36:23;;;;;;;;;9.50;8.00;;;;;;;;6341557;22;45147;-75
2023/05/27 13:38:48;;;;;;;;;10.00;8.25;;;;;;;;6339941;22;45676;-74
2023/05/27 13:41:14;;;;;;;;;7.50;7.25;;;;;;;;6340821;22;45963;-74
2023/05/27 13:43:39;;;;;;;;;9.50;8.00;;;;;;;;6343421;22;45233;-75
2023/05/27 13:46:04;;;;;;;;;10.75;9.50;;;;;;;;6340667;22;45369;-75
2023/05/27 13:48:30;;;;;;;;;10.00;9.00;;;;;;;;6341690;22;45609;-75
2023/05/27 13:50:55;;;;;;;;;8.75;8.00;;;;;;;;6336568;22;46259;-76
2023/05/27 13:53:21;;;;;;;;;7.40;6.60;;;;;;;;6341385;22;45271;-75
2023/05/27 13:55:47;;;;;;;;;8.75;8.25;;;;;;;;6342025;22;45422;-75
2023/05/27 13:58:12;;;;;;;;;14.75;10.50;;;;;;;;6341747;22;45249;-74
2023/05/27 14:00:37;;;;;;;;;9.75;7.50;;;;;;;;6339119;22;46660;-75
2023/05/27 14:03:02;;;;;;;;;10.00;8.75;;;;;;;;6341818;22;45268;-75
2023/05/27 14:05:28;;;;;;;;;8.25;8.25;;;;;;;;6340997;22;45194;-74
2023/05/27 14:07:53;;;;;;;;;5.00;3.25;;;;;;;;6342129;22;45247;-75
2023/05/27 14:10:18;;;;;;;;;12.00;10.00;;;;;;;;6341116;22;45337;-75
2023/05/27 14:12:44;;;;;;;;;10.50;7.00;;;;;;;;6340044;22;45259;-74
2023/05/27 14:15:10;;;;;;;;;9.75;8.25;;;;;;;;6341206;22;45237;-74
2023/05/27 14:17:35;;;;;;;;;11.75;9.75;;;;;;;;6340540;22;45504;-74
2023/05/27 14:20:01;;;;;;;;;10.00;10.00;;;;;;;;6341103;22;45260;-75
2023/05/27 14:22:26;;;;;;;;;10.00;9.50;;;;;;;;6338885;22;45241;-74
2023/05/27 14:24:52;;;;;;;;;10.75;10.25;;;;;;;;6341094;22;45156;-74
2023/05/27 14:27:17;;;;;;;;;12.00;9.25;;;;;;;;6341588;22;45282;-74
2023/05/27 14:29:42;;;;;;;;;9.25;9.25;;;;;;;;6340988;22;45153;-74
2023/05/27 14:32:08;;;;;;;;;9.75;8.00;;;;;;;;6340754;22;45198;-74
2023/05/27 14:34:34;;;;;;;;;11.75;9.25;;;;;;;;6340444;22;45234;-74
2023/05/27 14:36:59;;;;;;;;;13.00;12.00;;;;;;;;6341051;22;45396;-74
2023/05/27 14:39:24;;;;;;;;;11.50;8.25;;;;;;;;6340424;22;47306;-74
2023/05/27 14:41:50;;;;;;;;;12.00;11.25;;;;;;;;6342775;22;45339;-73
2023/05/27 14:44:15;;;;;;;;;13.50;10.75;;;;;;;;6342324;22;45363;-74
2023/05/27 14:46:40;;;;;;;;;11.25;9.00;;;;;;;;6340270;22;45304;-74
2023/05/27 14:49:07;;;;;;;;;11.75;9.00;;;;;;;;6342451;22;45945;-74
2023/05/27 14:51:32;;;;;;;;;11.00;10.00;;;;;;;;6340678;22;45284;-74
2023/05/27 14:53:57;;;;;;;;;9.75;8.50;;;;;;;;6343205;22;45295;-73
2023/05/27 14:56:23;;;;;;;;;12.00;11.25;;;;;;;;6343095;22;45854;-73
2023/05/27 14:58:48;;;;;;;;;13.00;10.00;;;;;;;;6342817;22;45257;-73
2023/05/27 15:01:14;;;;;;;;;9.00;8.50;;;;;;;;6342255;22;45579;-75
2023/05/27 15:03:39;;;;;;;;;9.25;9.25;;;;;;;;6342879;22;45289;-74
2023/05/27 15:06:05;;;;;;;;;12.00;10.00;;;;;;;;6342391;22;45091;-75
2023/05/27 15:08:30;;;;;;;;;11.50;9.75;;;;;;;;6343597;22;45185;-75
2023/05/27 15:10:57;;;;;;;;;10.00;10.00;;;;;;;;6343937;22;44584;-74
2023/05/27 15:13:22;;;;;;;;;9.75;8.25;;;;;;;;6343640;22;45212;-74
2023/05/27 15:15:48;;;;;;;;;10.25;8.00;;;;;;;;6343709;22;45569;-75
2023/05/27 15:18:14;;;;;;;;;9.75;9.75;;;;;;;;6345230;22;45208;-74
2023/05/27 15:20:39;;;;;;;;;12.75;10.50;;;;;;;;6342345;22;45246;-77
2023/05/27 15:23:04;;;;;;;;;18.75;18.75;;;;;;;;6342145;22;45170;-77
2023/05/27 15:25:29;;;;;;;;;9.50;9.50;;;;;;;;6343301;22;46168;-76
2023/05/27 15:27:55;;;;;;;;;37.00;31.33;;;;;;;;6344925;22;45956;-77
2023/05/27 15:30:20;;;;;;;;;16.00;14.00;;;;;;;;6341530;22;45372;-76
2023/05/27 15:32:46;;;;;;;;;11.25;9.00;;;;;;;;6344202;22;45217;-75
2023/05/27 15:35:11;;;;;;;;;14.00;10.00;;;;;;;;6344457;22;45285;-75
2023/05/27 15:37:37;;;;;;;;;9.75;9.00;;;;;;;;6345545;22;46007;-75
2023/05/27 15:40:02;;;;;;;;;10.25;6.75;;;;;;;;6342760;22;45385;-75
2023/05/27 15:42:28;;;;;;;;;10.00;8.75;;;;;;;;6343340;22;44655;-75
2023/05/27 15:44:53;;;;;;;;;11.25;9.25;;;;;;;;6344185;22;45309;-76
2023/05/27 15:47:20;;;;;;;;;7.75;6.00;;;;;;;;6376418;22;45606;-75
2023/05/27 15:49:45;;;;;;;;;11.20;10.00;;;;;;;;6377884;22;45179;-79
2023/05/27 15:52:12;;;;;;;;;9.75;9.75;;;;;;;;6376011;22;45232;-78
2023/05/27 15:54:38;;;;;;;;;9.00;8.25;;;;;;;;6377872;22;45456;-76
2023/05/27 15:57:04;;;;;;;;;12.50;9.75;;;;;;;;6347037;22;47058;-75
2023/05/27 15:59:30;;;;;;;;;12.00;10.40;;;;;;;;6372371;22;45329;-75
2023/05/27 16:01:56;;;;;;;;;11.75;11.25;;;;;;;;6376791;22;45285;-75
2023/05/27 16:04:24;;;;;;;;;7.25;6.25;;;;;;;;6346437;22;45590;-75
2023/05/27 16:06:50;;;;;;;;;9.50;8.50;;;;;;;;6375181;22;46223;-76
2023/05/27 16:09:15;;;;;;;;;7.75;7.00;;;;;;;;6373119;22;45548;-76
2023/05/27 16:11:40;;;;;;;;;7.50;7.50;;;;;;;;6375361;22;45894;-77
2023/05/27 16:14:05;;;;;;;;;10.25;8.75;;;;;;;;6374955;22;45405;-76
2023/05/27 16:16:32;;;;;;;;;7.00;7.00;;;;;;;;6347043;22;47077;-76
2023/05/27 16:18:57;;;;;;;;;7.80;7.20;;;;;;;;6374409;22;45164;-75
2023/05/27 16:21:22;;;;;;;;;11.25;9.25;;;;;;;;6374287;22;45157;-76
2023/05/27 16:23:47;;;;;;;;;11.00;8.50;;;;;;;;6374829;22;45200;-74
2023/05/27 16:26:13;;;;;;;;;9.00;8.50;;;;;;;;6374718;22;45286;-76
2023/05/27 16:28:38;;;;;;;;;6.75;6.75;;;;;;;;6374820;22;45225;-74
2023/05/27 16:31:05;;;;;;;;;11.00;6.75;;;;;;;;6374201;22;45209;-75
2023/05/27 16:33:30;;;;;;;;;10.00;7.25;;;;;;;;6375433;22;45265;-75
2023/05/27 16:35:55;;;;;;;;;10.75;10.25;;;;;;;;6374488;22;45280;-75
2023/05/27 16:38:21;;;;;;;;;10.50;9.50;;;;;;;;6373947;22;45334;-74
2023/05/27 16:40:46;;;;;;;;;10.75;10.75;;;;;;;;6373861;22;45220;-75
2023/05/27 16:43:11;;;;;;;;;11.50;11.25;;;;;;;;6373750;22;45467;-76
2023/05/27 16:45:37;;;;;;;;;9.25;8.25;;;;;;;;6344122;22;46224;-75
2023/05/27 16:48:06;;;;;;;;;10.40;9.20;;;;;;;;6374834;22;45188;-75
2023/05/27 16:50:31;;;;;;;;;9.75;9.25;;;;;;;;6345740;22;45260;-75
2023/05/27 16:52:56;;;;;;;;;15.25;8.00;;;;;;;;6374582;22;45147;-77
2023/05/27 16:55:21;;;;;;;;;9.00;7.00;;;;;;;;6374181;22;46337;-77
2023/05/27 16:57:47;;;;;;;;;13.00;9.00;;;;;;;;6375406;22;45082;-77
2023/05/27 17:00:12;;;;;;;;;13.00;9.50;;;;;;;;6371911;22;45216;-75
2023/05/27 17:02:39;;;;;;;;;10.75;8.25;;;;;;;;6376086;22;45459;-74
2023/05/27 17:05:04;;;;;;;;;9.50;9.50;;;;;;;;6345017;22;47085;-75
2023/05/27 17:07:30;;;;;;;;;10.50;8.50;;;;;;;;6373565;22;44627;-75
2023/05/27 17:09:55;;;;;;;;;8.25;8.25;;;;;;;;6376151;22;45171;-77
2023/05/27 17:12:20;;;;;;;;;7.75;6.25;;;;;;;;6375800;22;45374;-77
2023/05/27 17:14:46;;;;;;;;;10.75;8.75;;;;;;;;6374142;22;46179;-77
2023/05/27 17:17:11;;;;;;;;;7.75;7.75;;;;;;;;6375243;22;45224;-77
2023/05/27 17:19:37;;;;;;;;;49.67;39.67;;;;;;;;6347672;22;45256;-77
2023/05/27 17:22:03;;;;;;;;;8.50;7.75;;;;;;;;6374096;22;45551;-75
2023/05/27 17:24:29;;;;;;;;;11.50;10.00;;;;;;;;6347078;22;45464;-76
2023/05/27 17:26:54;;;;;;;;;9.25;9.00;;;;;;;;6375903;22;45231;-78
2023/05/27 17:29:21;;;;;;;;;10.50;9.25;;;;;;;;6374768;22;45200;-75
2023/05/27 17:31:46;;;;;;;;;12.25;10.00;;;;;;;;6346276;22;45184;-75
2023/05/27 17:34:12;;;;;;;;;9.00;9.00;;;;;;;;6374994;22;46884;-76
2023/05/27 17:36:37;;;;;;;;;13.25;10.50;;;;;;;;6376522;22;45211;-76
2023/05/27 17:39:03;;;;;;;;;12.67;12.67;;;;;;;;6375334;22;44525;-75
2023/05/27 17:41:29;;;;;;;;;10.75;10.75;;;;;;;;6374330;22;45243;-75
2023/05/27 17:43:54;;;;;;;;;12.00;8.50;;;;;;;;6374116;22;46751;-75
2023/05/27 17:46:20;;;;;;;;;6.75;6.75;;;;;;;;6373630;22;45187;-75
2023/05/27 17:48:45;;;;;;;;;13.50;10.25;;;;;;;;6345708;22;45276;-74
2023/05/27 17:51:11;;;;;;;;;11.00;9.50;;;;;;;;6374538;22;45437;-73
2023/05/27 17:53:37;;;;;;;;;11.25;8.75;;;;;;;;6373271;22;46575;-76
2023/05/27 17:56:02;;;;;;;;;14.25;13.00;;;;;;;;6372936;22;45232;-74
2023/05/27 17:58:27;;;;;;;;;19.67;19.67;;;;;;;;6374209;22;45273;-75
2023/05/27 18:00:53;;;;;;;;;14.00;11.75;;;;;;;;6373521;22;45410;-75
2023/05/27 18:03:18;;;;;;;;;14.75;9.00;;;;;;;;6374385;22;45221;-74
2023/05/27 18:05:43;;;;;;;;;14.00;10.75;;;;;;;;6373478;22;45278;-75
2023/05/27 18:08:09;;;;;;;;;14.25;11.25;;;;;;;;6373888;22;45257;-76
2023/05/27 18:10:34;;;;;;;;;15.00;10.25;;;;;;;;6373532;22;45458;-75
2023/05/27 18:12:59;;;;;;;;;10.25;9.50;;;;;;;;6374005;22;45253;-75
2023/05/27 18:15:25;;;;;;;;;9.75;9.75;;;;;;;;6374091;22;45223;-74
2023/05/27 18:17:51;;;;;;;;;10.25;9.50;;;;;;;;6319577;22;45229;-75
2023/05/27 18:20:17;;;;;;;;;26.33;24.33;;;;;;;;6346322;22;45719;-75
2023/05/27 18:22:43;;;;;;;;;17.33;15.67;;;;;;;;6375784;22;45148;-75
2023/05/27 18:25:09;;;;;;;;;12.00;9.50;;;;;;;;6346024;22;45217;-74
2023/05/27 18:27:34;;;;;;;;;11.75;11.75;;;;;;;;6376458;22;45198;-75
2023/05/27 18:30:00;;;;;;;;;22.33;21.33;;;;;;;;6374572;22;45139;-74
2023/05/27 18:32:25;;;;;;;;;16.33;16.33;;;;;;;;6374312;22;45226;-76
2023/05/27 18:34:50;;;;;;;;;13.25;11.00;;;;;;;;6375819;22;45507;-74
2023/05/27 18:37:17;;;;;;;;;13.67;13.67;;;;;;;;6376175;22;45551;-73
2023/05/27 18:39:42;;;;;;;;;11.33;11.33;;;;;;;;6375857;22;45194;-75
2023/05/27 18:42:07;;;;;;;;;18.33;15.67;;;;;;;;6375732;22;46456;-75
2023/05/27 18:44:35;;;;;;;;;16.33;12.00;;;;;;;;6375693;22;45281;-75
2023/05/27 18:47:00;;;;;;;;;13.00;11.67;;;;;;;;6346517;22;45298;-75
2023/05/27 18:49:26;;;;;;;;;11.33;10.67;;;;;;;;6375123;22;45225;-74
2023/05/27 18:51:52;;;;;;;;;12.67;12.67;;;;;;;;6375469;22;45563;-75
2023/05/27 18:54:20;;;;;;;;;13.00;12.00;;;;;;;;6375154;22;45174;-75
2023/05/27 18:56:46;;;;;;;;;79.00;71.25;;;;;;;;6374366;22;45317;-75
2023/05/27 18:59:12;;;;;;;;;70.50;55.00;;;;;;;;6374387;22;45423;-75
2023/05/27 19:01:38;;;;;;;;;15.67;14.67;;;;;;;;6375409;22;46103;-73
2023/05/27 19:04:04;;;;;;;;;11.33;11.00;;;;;;;;6375602;22;45176;-74
2023/05/27 19:06:29;;;;;;;;;13.67;12.67;;;;;;;;6376347;22;45289;-75
2023/05/27 19:08:55;;;;;;;;;11.67;10.33;;;;;;;;6376168;22;45261;-75
2023/05/27 19:11:21;;;;;;;;;13.00;13.00;;;;;;;;6346250;22;46318;-75
2023/05/27 19:13:47;;;;;;;;;20.00;17.33;;;;;;;;6376277;22;45193;-75
2023/05/27 19:16:13;;;;;;;;;13.00;12.33;;;;;;;;6375557;22;45143;-76
2023/05/27 19:18:38;;;;;;;;;17.00;15.67;;;;;;;;6347592;22;46975;-73
2023/05/27 19:21:03;;;;;;;;;18.33;15.67;;;;;;;;6346630;22;47372;-74
2023/05/27 19:23:29;;;;;;;;;12.67;12.33;;;;;;;;6374862;22;45131;-74
2023/05/27 19:25:55;;;;;;;;;12.00;12.00;;;;;;;;6373232;22;45188;-74
2023/05/27 19:28:20;;;;;;;;;14.00;13.00;;;;;;;;6374869;22;45137;-75
2023/05/27 19:30:46;;;;;;;;;15.00;15.00;;;;;;;;6373266;22;45327;-79
2023/05/27 19:33:14;;;;;;;;;17.00;14.33;;;;;;;;6375337;22;45329;-74
2023/05/27 19:35:40;;;;;;;;;10.00;8.67;;;;;;;;6373461;22;45655;-74
2023/05/27 19:38:06;;;;;;;;;11.33;11.33;;;;;;;;6376201;22;45286;-73
2023/05/27 19:40:31;;;;;;;;;25.00;22.67;;;;;;;;6374827;22;45230;-74
2023/05/27 19:42:56;;;;;;;;;14.00;14.00;;;;;;;;6374847;22;45461;-74
2023/05/27 19:45:23;;;;;;;;;17.33;12.00;;;;;;;;6374044;22;45427;-75
2023/05/27 19:47:48;;;;;;;;;11.33;11.00;;;;;;;;6345689;22;47040;-74
2023/05/27 19:50:14;;;;;;;;;17.33;16.33;;;;;;;;6319554;22;46803;-75
2023/05/27 19:52:40;;;;;;;;;14.33;13.00;;;;;;;;6375226;22;45109;-75
2023/05/27 19:55:05;;;;;;;;;16.67;13.00;;;;;;;;6375303;22;45162;-74
2023/05/27 19:57:31;;;;;;;;;13.33;13.33;;;;;;;;6345808;22;45978;-74
2023/05/27 19:59:56;;;;;;;;;20.33;14.00;;;;;;;;6345802;22;46171;-75
2023/05/27 20:02:21;;;;;;;;;16.33;15.33;;;;;;;;6374432;22;45243;-75
2023/05/27 20:04:46;;;;;;;;;16.67;13.33;;;;;;;;6374307;22;45355;-75
2023/05/27 20:07:11;;;;;;;;;17.33;13.00;;;;;;;;6345362;22;46024;-75